sensor_id;sensor_type;location;lat;lon;timestamp;temperature;humidity
49549;DHT22;35450;44.518;7.466;2022-12-18T00:00:20;3.70;95.70
49549;DHT22;35450;44.518;7.466;2022-12-18T00:03:25;3.70;96.30
49549;DHT22;35450;44.518;7.466;2022-12-18T00:06:29;3.70;97.10
49549;DHT22;35450;44.518;7.466;2022-12-18T00:09:33;3.70;97.50
49549;DHT22;35450;44.518;7.466;2022-12-18T00:12:37;3.70;97.00
49549;DHT22;35450;44.518;7.466;2022-12-18T00:15:41;3.70;96.90
49549;DHT22;35450;44.518;7.466;2022-12-18T00:18:46;3.70;96.30
49549;DHT22;35450;44.518;7.466;2022-12-18T00:21:50;3.70;96.90
49549;DHT22;35450;44.518;7.466;2022-12-18T00:24:54;3.70;97.00
49549;DHT22;35450;44.518;7.466;2022-12-18T00:27:58;3.80;96.50
49549;DHT22;35450;44.518;7.466;2022-12-18T00:31:11;3.90;96.30
49549;DHT22;35450;44.518;7.466;2022-12-18T00:34:15;3.90;97.00
49549;DHT22;35450;44.518;7.466;2022-12-18T00:37:19;3.90;97.00
49549;DHT22;35450;44.518;7.466;2022-12-18T00:40:23;3.90;96.50
49549;DHT22;35450;44.518;7.466;2022-12-18T00:43:27;3.80;96.50
49549;DHT22;35450;44.518;7.466;2022-12-18T00:46:31;3.90;96.80
49549;DHT22;35450;44.518;7.466;2022-12-18T00:49:35;3.60;96.00
49549;DHT22;35450;44.518;7.466;2022-12-18T00:52:39;3.50;96.10
49549;DHT22;35450;44.518;7.466;2022-12-18T00:55:43;3.50;95.50
49549;DHT22;35450;44.518;7.466;2022-12-18T00:58:47;3.50;95.20
49549;DHT22;35450;44.518;7.466;2022-12-18T01:01:52;3.50;94.80
49549;DHT22;35450;44.518;7.466;2022-12-18T01:04:57;3.40;95.80
49549;DHT22;35450;44.518;7.466;2022-12-18T01:08:01;3.30;96.80
49549;DHT22;35450;44.518;7.466;2022-12-18T01:11:11;3.40;97.20
49549;DHT22;35450;44.518;7.466;2022-12-18T01:14:15;3.40;96.90
49549;DHT22;35450;44.518;7.466;2022-12-18T01:17:19;3.40;97.00
49549;DHT22;35450;44.518;7.466;2022-12-18T01:20:23;3.40;97.40
49549;DHT22;35450;44.518;7.466;2022-12-18T01:23:27;3.50;97.40
49549;DHT22;35450;44.518;7.466;2022-12-18T01:26:31;3.50;97.00
49549;DHT22;35450;44.518;7.466;2022-12-18T01:29:35;3.40;96.50
49549;DHT22;35450;44.518;7.466;2022-12-18T01:32:40;3.40;95.60
49549;DHT22;35450;44.518;7.466;2022-12-18T01:35:44;3.40;95.40
49549;DHT22;35450;44.518;7.466;2022-12-18T01:38:48;3.40;96.10
49549;DHT22;35450;44.518;7.466;2022-12-18T01:41:52;3.50;97.40
49549;DHT22;35450;44.518;7.466;2022-12-18T01:48:20;3.50;96.60
49549;DHT22;35450;44.518;7.466;2022-12-18T01:51:25;3.40;96.90
49549;DHT22;35450;44.518;7.466;2022-12-18T01:54:30;3.40;97.50
49549;DHT22;35450;44.518;7.466;2022-12-18T01:57:34;3.40;97.40
49549;DHT22;35450;44.518;7.466;2022-12-18T02:00:39;3.40;97.30
49549;DHT22;35450;44.518;7.466;2022-12-18T02:03:44;3.40;97.50
49549;DHT22;35450;44.518;7.466;2022-12-18T02:07:07;3.50;97.60
49549;DHT22;35450;44.518;7.466;2022-12-18T02:10:36;3.50;96.80
49549;DHT22;35450;44.518;7.466;2022-12-18T02:14:00;3.50;97.60
49549;DHT22;35450;44.518;7.466;2022-12-18T02:17:22;3.40;96.60
49549;DHT22;35450;44.518;7.466;2022-12-18T02:24:03;3.50;97.30
49549;DHT22;35450;44.518;7.466;2022-12-18T02:27:13;3.50;97.10
49549;DHT22;35450;44.518;7.466;2022-12-18T02:30:18;3.50;97.60
49549;DHT22;35450;44.518;7.466;2022-12-18T02:33:23;3.50;97.50
49549;DHT22;35450;44.518;7.466;2022-12-18T02:36:29;3.50;97.00
49549;DHT22;35450;44.518;7.466;2022-12-18T02:39:38;3.60;97.10
49549;DHT22;35450;44.518;7.466;2022-12-18T02:42:44;3.60;97.00
49549;DHT22;35450;44.518;7.466;2022-12-18T02:45:57;3.50;96.90
49549;DHT22;35450;44.518;7.466;2022-12-18T02:49:35;3.50;96.80
49549;DHT22;35450;44.518;7.466;2022-12-18T02:56:10;3.40;97.10
49549;DHT22;35450;44.518;7.466;2022-12-18T03:06:34;3.40;96.60
49549;DHT22;35450;44.518;7.466;2022-12-18T03:09:42;3.20;95.30
49549;DHT22;35450;44.518;7.466;2022-12-18T03:13:03;3.30;96.30
49549;DHT22;35450;44.518;7.466;2022-12-18T03:16:12;3.40;96.50
49549;DHT22;35450;44.518;7.466;2022-12-18T03:19:21;3.30;95.60
49549;DHT22;35450;44.518;7.466;2022-12-18T03:22:30;3.30;96.90
49549;DHT22;35450;44.518;7.466;2022-12-18T03:25:40;3.30;96.20
49549;DHT22;35450;44.518;7.466;2022-12-18T03:28:51;3.30;96.60
49549;DHT22;35450;44.518;7.466;2022-12-18T03:32:03;3.30;96.50
49549;DHT22;35450;44.518;7.466;2022-12-18T03:35:11;3.30;97.00
49549;DHT22;35450;44.518;7.466;2022-12-18T03:38:17;3.30;97.00
49549;DHT22;35450;44.518;7.466;2022-12-18T03:41:34;3.30;97.20
49549;DHT22;35450;44.518;7.466;2022-12-18T03:45:42;3.30;97.60
49549;DHT22;35450;44.518;7.466;2022-12-18T03:48:52;3.20;97.40
49549;DHT22;35450;44.518;7.466;2022-12-18T03:52:06;3.20;96.60
49549;DHT22;35450;44.518;7.466;2022-12-18T03:55:12;3.20;96.60
49549;DHT22;35450;44.518;7.466;2022-12-18T03:58:22;3.20;96.10
49549;DHT22;35450;44.518;7.466;2022-12-18T04:01:41;3.20;95.80
49549;DHT22;35450;44.518;7.466;2022-12-18T04:04:55;3.10;96.80
49549;DHT22;35450;44.518;7.466;2022-12-18T04:08:02;3.10;98.00
49549;DHT22;35450;44.518;7.466;2022-12-18T04:11:07;3.20;98.20
49549;DHT22;35450;44.518;7.466;2022-12-18T04:14:12;3.30;98.00
49549;DHT22;35450;44.518;7.466;2022-12-18T04:17:17;3.30;97.50
49549;DHT22;35450;44.518;7.466;2022-12-18T04:20:21;3.30;97.50
49549;DHT22;35450;44.518;7.466;2022-12-18T04:23:25;3.40;97.60
49549;DHT22;35450;44.518;7.466;2022-12-18T04:26:32;3.40;97.50
49549;DHT22;35450;44.518;7.466;2022-12-18T04:29:56;3.50;97.60
49549;DHT22;35450;44.518;7.466;2022-12-18T04:33:00;3.60;97.60
49549;DHT22;35450;44.518;7.466;2022-12-18T04:36:07;3.50;97.70
49549;DHT22;35450;44.518;7.466;2022-12-18T04:39:12;3.50;97.90
49549;DHT22;35450;44.518;7.466;2022-12-18T04:42:16;3.70;98.20
49549;DHT22;35450;44.518;7.466;2022-12-18T04:45:20;3.60;97.40
49549;DHT22;35450;44.518;7.466;2022-12-18T04:48:24;3.50;96.90
49549;DHT22;35450;44.518;7.466;2022-12-18T04:51:28;3.60;96.20
49549;DHT22;35450;44.518;7.466;2022-12-18T04:54:31;3.50;95.80
49549;DHT22;35450;44.518;7.466;2022-12-18T04:57:35;3.60;96.20
49549;DHT22;35450;44.518;7.466;2022-12-18T05:00:39;3.50;95.90
49549;DHT22;35450;44.518;7.466;2022-12-18T05:03:44;3.60;95.40
49549;DHT22;35450;44.518;7.466;2022-12-18T05:06:47;3.40;96.00
49549;DHT22;35450;44.518;7.466;2022-12-18T05:09:51;3.40;96.20
49549;DHT22;35450;44.518;7.466;2022-12-18T05:12:55;3.40;96.70
49549;DHT22;35450;44.518;7.466;2022-12-18T05:16:02;3.50;97.90
49549;DHT22;35450;44.518;7.466;2022-12-18T05:19:07;3.50;98.60
49549;DHT22;35450;44.518;7.466;2022-12-18T05:22:11;3.60;99.30
49549;DHT22;35450;44.518;7.466;2022-12-18T05:25:15;3.70;99.60
49549;DHT22;35450;44.518;7.466;2022-12-18T05:28:19;3.80;99.50
49549;DHT22;35450;44.518;7.466;2022-12-18T05:31:23;3.90;99.60
49549;DHT22;35450;44.518;7.466;2022-12-18T05:34:27;4.00;99.70
49549;DHT22;35450;44.518;7.466;2022-12-18T05:37:33;4.10;99.50
49549;DHT22;35450;44.518;7.466;2022-12-18T05:40:37;3.90;98.80
49549;DHT22;35450;44.518;7.466;2022-12-18T05:43:44;4.00;98.60
49549;DHT22;35450;44.518;7.466;2022-12-18T05:46:48;4.00;98.30
49549;DHT22;35450;44.518;7.466;2022-12-18T05:49:52;4.10;99.10
49549;DHT22;35450;44.518;7.466;2022-12-18T05:52:56;4.10;99.40
49549;DHT22;35450;44.518;7.466;2022-12-18T05:56:02;4.00;98.80
49549;DHT22;35450;44.518;7.466;2022-12-18T05:59:06;4.00;99.80
49549;DHT22;35450;44.518;7.466;2022-12-18T06:02:10;4.10;99.90
49549;DHT22;35450;44.518;7.466;2022-12-18T06:05:14;4.20;99.50
49549;DHT22;35450;44.518;7.466;2022-12-18T06:08:18;4.20;99.00
49549;DHT22;35450;44.518;7.466;2022-12-18T06:11:25;4.10;98.70
49549;DHT22;35450;44.518;7.466;2022-12-18T06:14:29;4.10;98.80
49549;DHT22;35450;44.518;7.466;2022-12-18T06:17:33;4.20;98.70
49549;DHT22;35450;44.518;7.466;2022-12-18T06:20:38;4.20;98.40
49549;DHT22;35450;44.518;7.466;2022-12-18T06:23:43;4.20;98.60
49549;DHT22;35450;44.518;7.466;2022-12-18T06:26:47;4.20;98.40
49549;DHT22;35450;44.518;7.466;2022-12-18T06:29:51;4.20;98.60
49549;DHT22;35450;44.518;7.466;2022-12-18T06:32:55;4.30;98.70
49549;DHT22;35450;44.518;7.466;2022-12-18T06:36:10;4.40;98.70
49549;DHT22;35450;44.518;7.466;2022-12-18T06:39:14;4.30;98.60
49549;DHT22;35450;44.518;7.466;2022-12-18T06:42:18;4.40;98.70
49549;DHT22;35450;44.518;7.466;2022-12-18T06:45:26;4.50;98.80
49549;DHT22;35450;44.518;7.466;2022-12-18T06:48:30;4.50;98.70
49549;DHT22;35450;44.518;7.466;2022-12-18T06:51:34;4.50;98.80
49549;DHT22;35450;44.518;7.466;2022-12-18T06:54:38;4.50;99.00
49549;DHT22;35450;44.518;7.466;2022-12-18T06:57:42;4.50;98.80
49549;DHT22;35450;44.518;7.466;2022-12-18T07:00:46;4.40;98.70
49549;DHT22;35450;44.518;7.466;2022-12-18T07:03:54;4.50;98.60
49549;DHT22;35450;44.518;7.466;2022-12-18T07:06:58;4.50;98.20
49549;DHT22;35450;44.518;7.466;2022-12-18T07:10:07;4.40;98.50
49549;DHT22;35450;44.518;7.466;2022-12-18T07:13:11;4.30;98.80
49549;DHT22;35450;44.518;7.466;2022-12-18T07:16:19;4.30;98.70
49549;DHT22;35450;44.518;7.466;2022-12-18T07:19:24;4.30;98.80
49549;DHT22;35450;44.518;7.466;2022-12-18T07:22:28;4.40;98.60
49549;DHT22;35450;44.518;7.466;2022-12-18T07:25:36;4.30;98.90
49549;DHT22;35450;44.518;7.466;2022-12-18T07:28:41;4.30;98.80
49549;DHT22;35450;44.518;7.466;2022-12-18T07:31:45;4.40;98.90
49549;DHT22;35450;44.518;7.466;2022-12-18T07:34:49;4.40;98.80
49549;DHT22;35450;44.518;7.466;2022-12-18T07:37:53;4.50;98.80
49549;DHT22;35450;44.518;7.466;2022-12-18T07:41:12;4.40;98.80
49549;DHT22;35450;44.518;7.466;2022-12-18T07:44:16;4.50;98.90
49549;DHT22;35450;44.518;7.466;2022-12-18T07:47:20;4.50;98.90
49549;DHT22;35450;44.518;7.466;2022-12-18T07:50:24;4.50;98.80
49549;DHT22;35450;44.518;7.466;2022-12-18T07:53:28;4.60;98.90
49549;DHT22;35450;44.518;7.466;2022-12-18T07:56:32;4.50;99.00
49549;DHT22;35450;44.518;7.466;2022-12-18T07:59:36;4.50;98.90
49549;DHT22;35450;44.518;7.466;2022-12-18T08:02:40;4.40;99.20
49549;DHT22;35450;44.518;7.466;2022-12-18T08:05:44;4.40;99.10
49549;DHT22;35450;44.518;7.466;2022-12-18T08:08:48;4.60;99.00
49549;DHT22;35450;44.518;7.466;2022-12-18T08:11:52;4.60;98.90
49549;DHT22;35450;44.518;7.466;2022-12-18T08:14:56;4.70;98.70
49549;DHT22;35450;44.518;7.466;2022-12-18T08:18:00;4.60;99.00
49549;DHT22;35450;44.518;7.466;2022-12-18T08:21:19;4.70;99.00
49549;DHT22;35450;44.518;7.466;2022-12-18T08:24:25;4.80;99.00
49549;DHT22;35450;44.518;7.466;2022-12-18T08:27:29;4.80;99.10
49549;DHT22;35450;44.518;7.466;2022-12-18T08:30:33;4.90;99.20
49549;DHT22;35450;44.518;7.466;2022-12-18T08:33:38;4.90;98.80
49549;DHT22;35450;44.518;7.466;2022-12-18T08:36:42;5.00;98.90
49549;DHT22;35450;44.518;7.466;2022-12-18T08:39:47;5.00;98.80
49549;DHT22;35450;44.518;7.466;2022-12-18T08:42:51;5.00;99.00
49549;DHT22;35450;44.518;7.466;2022-12-18T08:46:13;5.00;99.10
49549;DHT22;35450;44.518;7.466;2022-12-18T08:49:18;5.10;99.00
49549;DHT22;35450;44.518;7.466;2022-12-18T08:52:22;5.20;99.00
49549;DHT22;35450;44.518;7.466;2022-12-18T08:55:26;5.20;98.90
49549;DHT22;35450;44.518;7.466;2022-12-18T08:58:31;5.10;99.00
49549;DHT22;35450;44.518;7.466;2022-12-18T09:01:35;5.20;99.10
49549;DHT22;35450;44.518;7.466;2022-12-18T09:04:38;5.30;99.20
49549;DHT22;35450;44.518;7.466;2022-12-18T09:07:43;5.00;99.50
49549;DHT22;35450;44.518;7.466;2022-12-18T09:10:49;5.20;99.40
49549;DHT22;35450;44.518;7.466;2022-12-18T09:13:54;5.30;99.40
49549;DHT22;35450;44.518;7.466;2022-12-18T09:16:58;5.40;99.20
49549;DHT22;35450;44.518;7.466;2022-12-18T09:20:02;5.40;99.10
49549;DHT22;35450;44.518;7.466;2022-12-18T09:23:07;5.40;99.20
49549;DHT22;35450;44.518;7.466;2022-12-18T09:26:11;5.50;99.20
49549;DHT22;35450;44.518;7.466;2022-12-18T09:29:16;5.50;99.10
49549;DHT22;35450;44.518;7.466;2022-12-18T09:32:20;5.40;99.00
49549;DHT22;35450;44.518;7.466;2022-12-18T09:35:24;5.50;99.00
49549;DHT22;35450;44.518;7.466;2022-12-18T09:38:28;5.60;98.90
49549;DHT22;35450;44.518;7.466;2022-12-18T09:44:52;5.40;99.20
49549;DHT22;35450;44.518;7.466;2022-12-18T09:47:57;5.50;99.00
49549;DHT22;35450;44.518;7.466;2022-12-18T09:51:05;5.60;98.80
49549;DHT22;35450;44.518;7.466;2022-12-18T09:54:18;5.60;98.90
49549;DHT22;35450;44.518;7.466;2022-12-18T09:57:24;5.70;98.70
49549;DHT22;35450;44.518;7.466;2022-12-18T10:00:29;5.90;98.70
49549;DHT22;35450;44.518;7.466;2022-12-18T10:03:33;5.90;98.60
49549;DHT22;35450;44.518;7.466;2022-12-18T10:06:58;6.00;98.50
49549;DHT22;35450;44.518;7.466;2022-12-18T10:13:33;6.10;98.10
49549;DHT22;35450;44.518;7.466;2022-12-18T10:16:47;6.20;98.10
49549;DHT22;35450;44.518;7.466;2022-12-18T10:23:49;6.30;98.10
49549;DHT22;35450;44.518;7.466;2022-12-18T10:27:09;6.20;98.10
49549;DHT22;35450;44.518;7.466;2022-12-18T10:30:21;6.30;98.00
49549;DHT22;35450;44.518;7.466;2022-12-18T10:33:31;6.30;97.70
49549;DHT22;35450;44.518;7.466;2022-12-18T10:36:37;6.40;97.60
49549;DHT22;35450;44.518;7.466;2022-12-18T10:39:41;6.40;97.80
49549;DHT22;35450;44.518;7.466;2022-12-18T10:42:45;6.60;97.60
49549;DHT22;35450;44.518;7.466;2022-12-18T10:49:19;6.60;97.80
49549;DHT22;35450;44.518;7.466;2022-12-18T10:52:25;6.70;97.70
49549;DHT22;35450;44.518;7.466;2022-12-18T10:55:34;6.70;97.60
49549;DHT22;35450;44.518;7.466;2022-12-18T10:58:38;6.60;97.50
49549;DHT22;35450;44.518;7.466;2022-12-18T11:01:53;6.70;97.50
49549;DHT22;35450;44.518;7.466;2022-12-18T11:04:58;6.70;97.40
49549;DHT22;35450;44.518;7.466;2022-12-18T11:08:02;6.60;96.60
49549;DHT22;35450;44.518;7.466;2022-12-18T11:11:19;6.60;96.30
49549;DHT22;35450;44.518;7.466;2022-12-18T11:14:32;6.60;95.60
49549;DHT22;35450;44.518;7.466;2022-12-18T11:17:36;6.60;95.10
49549;DHT22;35450;44.518;7.466;2022-12-18T11:20:41;6.60;95.30
49549;DHT22;35450;44.518;7.466;2022-12-18T11:23:52;6.60;95.10
49549;DHT22;35450;44.518;7.466;2022-12-18T11:27:05;6.70;95.20
49549;DHT22;35450;44.518;7.466;2022-12-18T11:33:21;6.60;95.60
49549;DHT22;35450;44.518;7.466;2022-12-18T11:36:29;6.60;96.10
49549;DHT22;35450;44.518;7.466;2022-12-18T11:39:42;6.70;96.10
49549;DHT22;35450;44.518;7.466;2022-12-18T11:43:00;6.80;96.20
49549;DHT22;35450;44.518;7.466;2022-12-18T11:46:10;6.80;96.00
49549;DHT22;35450;44.518;7.466;2022-12-18T11:49:22;6.70;96.00
49549;DHT22;35450;44.518;7.466;2022-12-18T11:52:35;6.70;96.00
49549;DHT22;35450;44.518;7.466;2022-12-18T12:06:03;6.80;96.10
49549;DHT22;35450;44.518;7.466;2022-12-18T12:12:52;6.80;96.40
49549;DHT22;35450;44.518;7.466;2022-12-18T12:16:04;6.80;96.40
49549;DHT22;35450;44.518;7.466;2022-12-18T12:19:32;6.90;96.30
49549;DHT22;35450;44.518;7.466;2022-12-18T12:22:45;6.80;96.20
49549;DHT22;35450;44.518;7.466;2022-12-18T12:26:26;6.80;96.60
49549;DHT22;35450;44.518;7.466;2022-12-18T12:30:29;6.70;96.50
49549;DHT22;35450;44.518;7.466;2022-12-18T12:36:57;6.80;96.40
49549;DHT22;35450;44.518;7.466;2022-12-18T12:40:03;6.70;96.60
49549;DHT22;35450;44.518;7.466;2022-12-18T12:46:20;6.80;97.20
49549;DHT22;35450;44.518;7.466;2022-12-18T12:49:27;6.80;97.40
49549;DHT22;35450;44.518;7.466;2022-12-18T12:52:45;6.80;97.50
49549;DHT22;35450;44.518;7.466;2022-12-18T12:55:50;6.80;97.70
49549;DHT22;35450;44.518;7.466;2022-12-18T12:59:18;6.70;97.60
49549;DHT22;35450;44.518;7.466;2022-12-18T13:02:46;6.60;98.10
49549;DHT22;35450;44.518;7.466;2022-12-18T13:06:02;6.60;98.40
49549;DHT22;35450;44.518;7.466;2022-12-18T13:09:08;6.60;98.50
49549;DHT22;35450;44.518;7.466;2022-12-18T13:12:12;6.70;98.50
49549;DHT22;35450;44.518;7.466;2022-12-18T13:18:49;6.60;98.00
49549;DHT22;35450;44.518;7.466;2022-12-18T13:21:55;6.70;98.80
49549;DHT22;35450;44.518;7.466;2022-12-18T13:25:00;6.50;99.10
49549;DHT22;35450;44.518;7.466;2022-12-18T13:34:34;6.60;99.00
49549;DHT22;35450;44.518;7.466;2022-12-18T13:37:42;6.70;99.40
49549;DHT22;35450;44.518;7.466;2022-12-18T13:43:58;6.60;99.80
49549;DHT22;35450;44.518;7.466;2022-12-18T13:47:32;6.50;99.90
49549;DHT22;35450;44.518;7.466;2022-12-18T13:50:36;6.60;99.90
49549;DHT22;35450;44.518;7.466;2022-12-18T13:53:46;6.60;99.90
49549;DHT22;35450;44.518;7.466;2022-12-18T13:56:51;6.60;99.90
49549;DHT22;35450;44.518;7.466;2022-12-18T13:59:56;6.60;99.90
49549;DHT22;35450;44.518;7.466;2022-12-18T14:03:00;6.70;99.90
49549;DHT22;35450;44.518;7.466;2022-12-18T14:06:07;6.70;99.90
49549;DHT22;35450;44.518;7.466;2022-12-18T14:09:26;6.60;99.90
49549;DHT22;35450;44.518;7.466;2022-12-18T14:12:31;6.70;99.90
49549;DHT22;35450;44.518;7.466;2022-12-18T14:15:55;6.70;99.90
49549;DHT22;35450;44.518;7.466;2022-12-18T14:18:59;6.70;99.90
49549;DHT22;35450;44.518;7.466;2022-12-18T14:22:04;6.80;99.90
49549;DHT22;35450;44.518;7.466;2022-12-18T14:25:25;6.80;99.60
49549;DHT22;35450;44.518;7.466;2022-12-18T14:28:30;6.80;99.40
49549;DHT22;35450;44.518;7.466;2022-12-18T14:31:35;6.90;99.50
49549;DHT22;35450;44.518;7.466;2022-12-18T14:34:39;6.90;99.50
49549;DHT22;35450;44.518;7.466;2022-12-18T14:37:43;6.80;99.60
49549;DHT22;35450;44.518;7.466;2022-12-18T14:40:47;6.90;99.40
49549;DHT22;35450;44.518;7.466;2022-12-18T14:43:55;6.90;99.50
49549;DHT22;35450;44.518;7.466;2022-12-18T14:47:14;7.00;99.10
49549;DHT22;35450;44.518;7.466;2022-12-18T14:50:18;7.00;98.80
49549;DHT22;35450;44.518;7.466;2022-12-18T14:53:55;7.00;98.60
49549;DHT22;35450;44.518;7.466;2022-12-18T14:57:17;6.90;98.70
49549;DHT22;35450;44.518;7.466;2022-12-18T15:00:23;7.00;98.40
49549;DHT22;35450;44.518;7.466;2022-12-18T15:03:27;7.00;98.10
49549;DHT22;35450;44.518;7.466;2022-12-18T15:06:37;7.00;97.90
49549;DHT22;35450;44.518;7.466;2022-12-18T15:09:43;6.90;97.70
49549;DHT22;35450;44.518;7.466;2022-12-18T15:16:11;6.70;97.80
49549;DHT22;35450;44.518;7.466;2022-12-18T15:19:16;6.70;98.00
49549;DHT22;35450;44.518;7.466;2022-12-18T15:22:28;6.50;98.00
49549;DHT22;35450;44.518;7.466;2022-12-18T15:25:36;6.50;98.10
49549;DHT22;35450;44.518;7.466;2022-12-18T15:32:00;6.40;98.10
49549;DHT22;35450;44.518;7.466;2022-12-18T15:38:12;6.30;98.00
49549;DHT22;35450;44.518;7.466;2022-12-18T15:41:21;6.30;98.10
49549;DHT22;35450;44.518;7.466;2022-12-18T15:44:25;6.20;98.10
49549;DHT22;35450;44.518;7.466;2022-12-18T15:47:30;6.20;98.00
49549;DHT22;35450;44.518;7.466;2022-12-18T15:50:34;6.10;98.20
49549;DHT22;35450;44.518;7.466;2022-12-18T15:53:38;6.10;98.20
49549;DHT22;35450;44.518;7.466;2022-12-18T15:56:42;6.10;98.30
49549;DHT22;35450;44.518;7.466;2022-12-18T16:00:05;6.10;98.60
49549;DHT22;35450;44.518;7.466;2022-12-18T16:03:09;6.00;98.40
49549;DHT22;35450;44.518;7.466;2022-12-18T16:06:13;6.00;98.40
49549;DHT22;35450;44.518;7.466;2022-12-18T16:09:17;6.00;98.40
49549;DHT22;35450;44.518;7.466;2022-12-18T16:12:22;6.00;98.30
49549;DHT22;35450;44.518;7.466;2022-12-18T16:15:27;5.90;98.30
49549;DHT22;35450;44.518;7.466;2022-12-18T16:18:31;5.90;98.60
49549;DHT22;35450;44.518;7.466;2022-12-18T16:21:35;5.90;98.80
49549;DHT22;35450;44.518;7.466;2022-12-18T16:24:39;5.80;98.50
49549;DHT22;35450;44.518;7.466;2022-12-18T16:27:43;5.80;98.60
49549;DHT22;35450;44.518;7.466;2022-12-18T16:30:47;5.70;98.80
49549;DHT22;35450;44.518;7.466;2022-12-18T16:34:19;5.70;98.70
49549;DHT22;35450;44.518;7.466;2022-12-18T16:37:25;5.60;98.60
49549;DHT22;35450;44.518;7.466;2022-12-18T16:40:31;5.60;98.90
49549;DHT22;35450;44.518;7.466;2022-12-18T16:43:35;5.50;98.80
49549;DHT22;35450;44.518;7.466;2022-12-18T16:46:39;5.50;98.80
49549;DHT22;35450;44.518;7.466;2022-12-18T16:49:46;5.40;99.20
49549;DHT22;35450;44.518;7.466;2022-12-18T16:52:51;5.50;99.10
49549;DHT22;35450;44.518;7.466;2022-12-18T16:55:56;5.50;98.80
49549;DHT22;35450;44.518;7.466;2022-12-18T16:59:02;5.40;98.70
49549;DHT22;35450;44.518;7.466;2022-12-18T17:02:24;5.40;98.80
49549;DHT22;35450;44.518;7.466;2022-12-18T17:05:28;5.30;98.40
49549;DHT22;35450;44.518;7.466;2022-12-18T17:08:32;5.30;98.50
49549;DHT22;35450;44.518;7.466;2022-12-18T17:11:36;5.30;98.70
49549;DHT22;35450;44.518;7.466;2022-12-18T17:14:40;5.20;98.30
49549;DHT22;35450;44.518;7.466;2022-12-18T17:17:44;5.20;98.00
49549;DHT22;35450;44.518;7.466;2022-12-18T17:20:48;5.10;97.90
49549;DHT22;35450;44.518;7.466;2022-12-18T17:23:52;5.00;98.60
49549;DHT22;35450;44.518;7.466;2022-12-18T17:26:56;4.90;98.90
49549;DHT22;35450;44.518;7.466;2022-12-18T17:30:01;5.10;99.00
49549;DHT22;35450;44.518;7.466;2022-12-18T17:33:06;5.00;98.90
49549;DHT22;35450;44.518;7.466;2022-12-18T17:36:12;5.10;98.80
49549;DHT22;35450;44.518;7.466;2022-12-18T17:39:19;5.10;98.60
49549;DHT22;35450;44.518;7.466;2022-12-18T17:42:23;5.10;98.70
49549;DHT22;35450;44.518;7.466;2022-12-18T17:45:27;5.00;98.50
49549;DHT22;35450;44.518;7.466;2022-12-18T17:48:31;5.00;98.50
49549;DHT22;35450;44.518;7.466;2022-12-18T17:51:36;5.00;97.70
49549;DHT22;35450;44.518;7.466;2022-12-18T17:54:40;5.00;97.90
49549;DHT22;35450;44.518;7.466;2022-12-18T17:57:46;4.90;97.80
49549;DHT22;35450;44.518;7.466;2022-12-18T18:00:50;4.90;97.80
49549;DHT22;35450;44.518;7.466;2022-12-18T18:03:54;4.80;98.30
49549;DHT22;35450;44.518;7.466;2022-12-18T18:07:03;4.80;98.50
49549;DHT22;35450;44.518;7.466;2022-12-18T18:10:08;4.80;98.70
49549;DHT22;35450;44.518;7.466;2022-12-18T18:13:24;4.80;98.40
49549;DHT22;35450;44.518;7.466;2022-12-18T18:16:48;4.60;98.70
49549;DHT22;35450;44.518;7.466;2022-12-18T18:19:53;4.70;98.80
49549;DHT22;35450;44.518;7.466;2022-12-18T18:22:56;4.80;98.80
49549;DHT22;35450;44.518;7.466;2022-12-18T18:26:05;4.60;98.70
49549;DHT22;35450;44.518;7.466;2022-12-18T18:29:13;4.70;98.90
49549;DHT22;35450;44.518;7.466;2022-12-18T18:32:17;4.80;98.70
49549;DHT22;35450;44.518;7.466;2022-12-18T18:35:22;4.80;98.60
49549;DHT22;35450;44.518;7.466;2022-12-18T18:38:26;4.80;98.60
49549;DHT22;35450;44.518;7.466;2022-12-18T18:41:31;4.70;98.70
49549;DHT22;35450;44.518;7.466;2022-12-18T18:44:35;4.70;98.60
49549;DHT22;35450;44.518;7.466;2022-12-18T18:47:39;4.70;98.50
49549;DHT22;35450;44.518;7.466;2022-12-18T18:50:43;4.60;98.80
49549;DHT22;35450;44.518;7.466;2022-12-18T18:53:50;4.60;98.80
49549;DHT22;35450;44.518;7.466;2022-12-18T18:56:54;4.70;98.60
49549;DHT22;35450;44.518;7.466;2022-12-18T18:59:58;4.60;98.70
49549;DHT22;35450;44.518;7.466;2022-12-18T19:03:02;4.50;98.90
49549;DHT22;35450;44.518;7.466;2022-12-18T19:06:07;4.60;98.80
49549;DHT22;35450;44.518;7.466;2022-12-18T19:09:12;4.50;98.80
49549;DHT22;35450;44.518;7.466;2022-12-18T19:12:16;4.60;98.80
49549;DHT22;35450;44.518;7.466;2022-12-18T19:15:38;4.60;98.70
49549;DHT22;35450;44.518;7.466;2022-12-18T19:18:42;4.70;98.40
49549;DHT22;35450;44.518;7.466;2022-12-18T19:21:46;4.50;97.80
49549;DHT22;35450;44.518;7.466;2022-12-18T19:24:50;4.40;97.80
49549;DHT22;35450;44.518;7.466;2022-12-18T19:27:55;4.50;98.50
49549;DHT22;35450;44.518;7.466;2022-12-18T19:31:01;4.50;98.00
49549;DHT22;35450;44.518;7.466;2022-12-18T19:34:05;4.50;98.10
49549;DHT22;35450;44.518;7.466;2022-12-18T19:37:09;4.40;98.10
49549;DHT22;35450;44.518;7.466;2022-12-18T19:40:13;4.30;98.20
49549;DHT22;35450;44.518;7.466;2022-12-18T19:43:18;4.40;98.80
49549;DHT22;35450;44.518;7.466;2022-12-18T19:46:22;4.40;98.60
49549;DHT22;35450;44.518;7.466;2022-12-18T19:49:26;4.40;98.80
49549;DHT22;35450;44.518;7.466;2022-12-18T19:52:31;4.20;99.00
49549;DHT22;35450;44.518;7.466;2022-12-18T19:55:40;4.30;98.90
49549;DHT22;35450;44.518;7.466;2022-12-18T19:58:44;4.30;98.90
49549;DHT22;35450;44.518;7.466;2022-12-18T20:01:48;4.20;99.40
49549;DHT22;35450;44.518;7.466;2022-12-18T20:04:53;4.30;99.30
49549;DHT22;35450;44.518;7.466;2022-12-18T20:07:57;4.20;98.60
49549;DHT22;35450;44.518;7.466;2022-12-18T20:11:00;4.20;98.70
49549;DHT22;35450;44.518;7.466;2022-12-18T20:14:04;4.20;99.20
49549;DHT22;35450;44.518;7.466;2022-12-18T20:17:09;4.20;99.20
49549;DHT22;35450;44.518;7.466;2022-12-18T20:20:13;4.20;99.00
49549;DHT22;35450;44.518;7.466;2022-12-18T20:23:16;4.20;98.90
49549;DHT22;35450;44.518;7.466;2022-12-18T20:26:22;4.20;99.20
49549;DHT22;35450;44.518;7.466;2022-12-18T20:29:26;4.20;99.60
49549;DHT22;35450;44.518;7.466;2022-12-18T20:32:31;4.10;99.20
49549;DHT22;35450;44.518;7.466;2022-12-18T20:35:35;4.10;98.70
49549;DHT22;35450;44.518;7.466;2022-12-18T20:38:39;4.10;99.10
49549;DHT22;35450;44.518;7.466;2022-12-18T20:41:43;4.00;99.50
49549;DHT22;35450;44.518;7.466;2022-12-18T20:44:48;4.10;99.30
49549;DHT22;35450;44.518;7.466;2022-12-18T20:47:53;4.00;99.60
49549;DHT22;35450;44.518;7.466;2022-12-18T20:51:02;4.00;99.20
49549;DHT22;35450;44.518;7.466;2022-12-18T20:54:06;4.10;98.00
49549;DHT22;35450;44.518;7.466;2022-12-18T20:57:10;3.80;97.50
49549;DHT22;35450;44.518;7.466;2022-12-18T21:00:14;3.90;96.90
49549;DHT22;35450;44.518;7.466;2022-12-18T21:03:18;3.90;95.90
49549;DHT22;35450;44.518;7.466;2022-12-18T21:06:22;3.80;96.20
49549;DHT22;35450;44.518;7.466;2022-12-18T21:09:27;3.80;97.70
49549;DHT22;35450;44.518;7.466;2022-12-18T21:12:32;3.80;97.50
49549;DHT22;35450;44.518;7.466;2022-12-18T21:15:41;3.70;97.80
49549;DHT22;35450;44.518;7.466;2022-12-18T21:18:45;3.60;97.90